header
chart

Reported and forecast weather at local airports

Important: not to be used for flight planning purposes.


EGBB METAR fetched   Monday 15th Oct @ 16:37:03
EGBB 151520Z 02008KT 2500 DZ OVC005 10/10 Q1014

EGCC METAR fetched   Monday 15th Oct @ 16:36:59
EGCC 151520Z AUTO 05007KT 9999 BKN015 11/09 Q1015 NOSIG

EGGP METAR fetched   Monday 15th Oct @ 16:37:00
EGGP 151520Z 07008KT 9999 SCT024 12/08 Q1015

EGNH METAR fetched   Monday 15th Oct @ 16:37:01
EGNH 151520Z 08008KT 9999 FEW033 13/08 Q1015

EGNM METAR fetched   Monday 15th Oct @ 16:37:02
EGNM 151520Z 07006KT 020V120 9999 SCT010 SCT015 10/08 Q1015

EGOV METAR fetched   Monday 15th Oct @ 16:37:03
EGOV 151450Z 04011KT 9999 FEW028 13/07 Q1014 BLU NOSIG


EGBB TAF fetched   Monday 15th Oct @ 16:37:03
TAF EGBB 151105Z 1512/1612 02010KT 2000 DZ BKN004 BECMG 1512/1515 8000 -DZ BKN010 TEMPO 1515/1521 4000 DZ BKN006 BECMG 1521/1524 VRB03KT 4000 BR BKN005 PROB40 TEMPO 1600/1609 0300 DZ FG BKN001 BECMG 1609/1612 20010KT 9999 NSW BKN012

EGCC TAF fetched   Monday 15th Oct @ 16:37:00
TAF EGCC 151054Z 1512/1618 02006KT 9999 FEW025 PROB30 TEMPO 1522/1602 8000 -RA BKN009 BECMG 1602/1605 BKN010 TEMPO 1602/1612 8000 -RA BKN007 PROB30 TEMPO 1603/1610 4000 RADZ BR BKN004 BECMG 1606/1609 19010KT BECMG 1612/1615 SCT020

EGGP TAF fetched   Monday 15th Oct @ 16:37:01
TAF TAF EGGP 151054Z 1512/1612 05007KT 9999 FEW020 PROB30 TEMPO 1523/1602 8000 -RA BKN014 BECMG 1602/1605 16010KT BKN014 TEMPO 1602/1612 8000 -RA BKN009 PROB30 TEMPO 1602/1610 4000 RADZ BR BKN004

EGNM TAF fetched   Monday 15th Oct @ 16:37:02
TAF TAF EGNM 151057Z 1512/1612 04006KT 9999 FEW025 BECMG 1515/1518 BKN010 BECMG 1518/1521 6000 BKN006 BECMG 1523/1602 0200 FG BKN001 BECMG 1604/1607 17010KT BECMG 1606/1609 6000 NSW BKN006 BECMG 1609/1612 9999 SCT015

EGOV TAF fetched   Monday 15th Oct @ 16:37:04
TAF TAF EGOV 190525Z 1906/1918 04008KT CAVOK PROB30 TEMPO 1906/1912 6000 SHRA TEMPO 1912/1915 4000 +SHRA SCT020 BKN030CB PROB30 TEMPO 1913/1915 VRBG20G30KT 2500 TSGR BKN012

Every effort is made to ensure that this information is free from errors but as it is provided by a third party the accuracy of the reports cannot be guaranteed.